Time;durP1;ratioP1;P1;durP2;ratioP2;P2;SDS_P1;SDS_P2;PMS_P1;PMS_P2;Temp;Humidity;BMP_temperature;BMP_pressure;BME280_temperature;BME280_humidity;BME280_pressure;Samples;Min_cycle;Max_cycle;Signal;HPM_P1;HPM_P2
2023/04/21 00:01:00;;;;;;;5.57;4.25;;;22.40;43.50;;;;;;4993533;28;20133;-67
2023/04/21 00:03:28;;;;;;;5.03;4.40;;;22.30;43.50;;;;;;5002054;28;20125;-67
2023/04/21 00:05:57;;;;;;;4.28;3.72;;;22.40;43.50;;;;;;5013788;28;20081;-67
2023/04/21 00:08:27;;;;;;;4.53;3.92;;;22.30;43.50;;;;;;5010596;28;20487;-67
2023/04/21 00:10:55;;;;;;;4.38;3.97;;;22.30;43.50;;;;;;4993342;28;20060;-67
2023/04/21 00:13:22;;;;;;;7.97;4.22;;;22.30;43.50;;;;;;4992360;28;20054;-68
2023/04/21 00:15:50;;;;;;;4.95;4.47;;;22.30;43.60;;;;;;4992988;28;20050;-67
2023/04/21 00:18:17;;;;;;;5.13;4.60;;;22.30;43.60;;;;;;4993752;28;20061;-67
2023/04/21 00:20:44;;;;;;;4.25;3.72;;;22.30;43.60;;;;;;4993924;28;20050;-67
2023/04/21 00:23:11;;;;;;;4.07;3.55;;;22.30;43.60;;;;;;4992865;28;20132;-67
2023/04/21 00:25:38;;;;;;;5.38;4.20;;;22.30;43.60;;;;;;4993308;28;20567;-67
2023/04/21 00:28:05;;;;;;;4.60;4.15;;;22.30;43.50;;;;;;4993489;28;20082;-67
2023/04/21 00:30:33;;;;;;;4.57;4.18;;;22.30;43.50;;;;;;4992557;28;20054;-67
2023/04/21 00:33:00;;;;;;;4.25;3.83;;;22.30;43.40;;;;;;4993433;28;20082;-67
2023/04/21 00:35:27;;;;;;;4.80;4.20;;;22.30;43.40;;;;;;4992644;28;20050;-68
2023/04/21 00:37:54;;;;;;;4.18;3.78;;;22.30;43.40;;;;;;4993475;28;20104;-67
2023/04/21 00:40:21;;;;;;;5.07;4.18;;;22.30;43.40;;;;;;4993143;28;20121;-67
2023/04/21 00:42:49;;;;;;;4.50;4.10;;;22.30;43.40;;;;;;4993206;28;20126;-67
2023/04/21 00:45:16;;;;;;;5.95;4.28;;;22.30;43.40;;;;;;4993161;28;20050;-67
2023/04/21 00:47:43;;;;;;;4.47;4.07;;;22.30;43.40;;;;;;4996865;28;20041;-67
2023/04/21 00:50:11;;;;;;;4.97;4.07;;;22.30;43.40;;;;;;5011663;28;20050;-67
2023/04/21 00:52:40;;;;;;;6.20;4.22;;;22.30;43.50;;;;;;5012711;28;20046;-68
2023/04/21 00:55:07;;;;;;;4.07;3.40;;;22.30;43.50;;;;;;5012576;28;20046;-67
2023/04/21 00:57:36;;;;;;;3.85;3.42;;;22.30;43.50;;;;;;5013112;28;20124;-68
2023/04/21 01:00:07;;;;;;;4.68;3.80;;;22.30;43.50;;;;;;5012530;28;20084;-67
2023/04/21 01:02:36;;;;;;;4.60;3.67;;;22.30;43.50;;;;;;5011993;28;20132;-68
2023/04/21 01:05:08;;;;;;;4.25;3.78;;;22.20;43.50;;;;;;5012285;28;20391;-67
2023/04/21 01:07:36;;;;;;;4.40;3.70;;;22.20;43.50;;;;;;5012552;28;20505;-68
2023/04/21 01:10:03;;;;;;;3.92;3.63;;;22.20;43.50;;;;;;5013274;28;20128;-67
2023/04/21 01:12:31;;;;;;;4.45;3.75;;;22.20;43.50;;;;;;5012862;28;20100;-68
2023/04/21 01:14:58;;;;;;;4.20;3.80;;;22.20;43.50;;;;;;5013284;28;20123;-68
2023/04/21 01:17:25;;;;;;;4.40;3.90;;;22.20;43.50;;;;;;5012115;28;20049;-65
2023/04/21 01:19:55;;;;;;;4.25;3.60;;;22.20;43.50;;;;;;5012397;28;20046;-67
2023/04/21 01:22:22;;;;;;;4.38;3.97;;;22.20;43.50;;;;;;5011984;28;20125;-67
2023/04/21 01:24:50;;;;;;;5.80;4.13;;;22.20;43.50;;;;;;5014930;28;20104;-67
2023/04/21 01:27:19;;;;;;;3.28;3.03;;;22.10;43.50;;;;;;5016260;28;20466;-67
2023/04/21 01:29:50;;;;;;;5.43;3.90;;;22.20;43.50;;;;;;5015362;28;20096;-67
2023/04/21 01:32:20;;;;;;;4.65;3.55;;;22.20;43.50;;;;;;5015545;28;20085;-67
2023/04/21 01:34:48;;;;;;;5.18;3.65;;;22.20;43.60;;;;;;5015202;28;20068;-67
2023/04/21 01:37:19;;;;;;;5.25;3.67;;;22.20;43.50;;;;;;5014533;28;20049;-67
2023/04/21 01:39:53;;;;;;;5.32;3.75;;;22.20;43.50;;;;;;5016360;28;20501;-67
2023/04/21 01:42:23;;;;;;;4.97;3.97;;;22.20;43.50;;;;;;5015634;28;20057;-67
2023/04/21 01:44:52;;;;;;;4.07;3.78;;;22.20;43.50;;;;;;5015976;28;20049;-67
2023/04/21 01:47:20;;;;;;;5.45;3.88;;;22.20;43.60;;;;;;5015033;28;20053;-67
2023/04/21 01:49:47;;;;;;;3.90;3.42;;;22.10;43.50;;;;;;5015802;28;20557;-67
2023/04/21 01:52:14;;;;;;;4.30;3.90;;;22.10;43.50;;;;;;5015417;28;20160;-67
2023/04/21 01:54:42;;;;;;;5.20;3.88;;;22.10;43.50;;;;;;5015066;28;20157;-67
2023/04/21 01:57:09;;;;;;;5.43;4.00;;;22.10;43.50;;;;;;5014443;28;20129;-67
2023/04/21 01:59:36;;;;;;;4.15;3.75;;;22.10;43.60;;;;;;5014257;28;20057;-68
2023/04/21 02:02:04;;;;;;;4.63;3.95;;;22.10;43.60;;;;;;5014228;28;20562;-67
2023/04/21 02:04:31;;;;;;;3.85;3.35;;;22.10;43.60;;;;;;5015304;28;20054;-66
2023/04/21 02:06:59;;;;;;;4.05;3.72;;;22.10;43.60;;;;;;5014547;28;20100;-67
2023/04/21 02:09:26;;;;;;;4.15;3.75;;;22.10;43.60;;;;;;5013542;28;20100;-66
2023/04/21 02:11:56;;;;;;;3.70;3.40;;;22.10;43.60;;;;;;5013970;28;20085;-66
2023/04/21 02:14:26;;;;;;;5.55;4.43;;;22.10;43.60;;;;;;5015878;28;20046;-66
2023/04/21 02:16:54;;;;;;;4.45;3.58;;;22.10;43.60;;;;;;5014904;28;20085;-67
2023/04/21 02:19:22;;;;;;;5.30;4.07;;;22.10;43.50;;;;;;5015452;28;20546;-67
2023/04/21 02:21:49;;;;;;;3.80;3.40;;;22.10;43.50;;;;;;5013922;28;20045;-67
2023/04/21 02:24:17;;;;;;;5.63;4.15;;;22.10;43.50;;;;;;5014245;28;20133;-67
2023/04/21 02:26:44;;;;;;;4.10;3.33;;;22.10;43.40;;;;;;5014737;28;20473;-67
2023/04/21 02:29:11;;;;;;;5.30;3.95;;;22.10;43.50;;;;;;5013584;28;20137;-67
2023/04/21 02:31:39;;;;;;;4.53;4.13;;;22.10;43.50;;;;;;5012563;28;20128;-67
2023/04/21 02:34:24;;;;;;;5.18;3.88;;;22.10;43.50;;;;;;5014723;28;20424;-67
2023/04/21 02:36:52;;;;;;;3.53;3.22;;;22.10;43.50;;;;;;5014000;28;20137;-67
2023/04/21 02:39:19;;;;;;;5.28;3.40;;;22.10;43.50;;;;;;5014977;28;20450;-67
2023/04/21 02:41:46;;;;;;;3.90;3.50;;;22.10;43.40;;;;;;5014380;28;20129;-67
2023/04/21 02:44:14;;;;;;;3.53;3.03;;;22.10;43.50;;;;;;5014634;28;20454;-67
2023/04/21 02:46:41;;;;;;;3.90;3.47;;;22.10;43.50;;;;;;5013576;28;20557;-67
2023/04/21 02:49:09;;;;;;;4.07;3.55;;;22.00;43.40;;;;;;5015003;28;20414;-67
2023/04/21 02:51:36;;;;;;;3.65;3.35;;;22.00;43.50;;;;;;5013877;28;20053;-66
2023/04/21 02:54:04;;;;;;;4.63;3.75;;;22.00;43.40;;;;;;5014499;28;20053;-67
2023/04/21 02:56:33;;;;;;;3.72;3.38;;;22.00;43.50;;;;;;5014890;28;20078;-67
2023/04/21 02:59:00;;;;;;;5.47;4.20;;;22.00;44.00;;;;;;5013688;28;20053;-69
2023/04/21 03:01:27;;;;;;;4.72;4.07;;;22.00;43.40;;;;;;5013276;28;20056;-68
2023/04/21 03:03:55;;;;;;;4.28;3.65;;;22.00;43.40;;;;;;5014732;28;20486;-66
2023/04/21 03:06:22;;;;;;;4.10;3.75;;;22.00;43.40;;;;;;5013119;28;20129;-66
2023/04/21 03:08:49;;;;;;;3.95;3.55;;;22.00;43.40;;;;;;5014167;28;20081;-67
2023/04/21 03:11:16;;;;;;;4.07;3.25;;;22.00;43.40;;;;;;4997866;28;20081;-67
2023/04/21 03:13:44;;;;;;;4.03;3.60;;;22.00;43.40;;;;;;4976585;28;20086;-67
2023/04/21 03:16:12;;;;;;;4.03;3.58;;;22.00;43.50;;;;;;4994791;28;20121;-67
2023/04/21 03:18:39;;;;;;;3.50;3.20;;;22.00;43.40;;;;;;4994094;28;20050;-67
2023/04/21 03:21:06;;;;;;;4.85;4.18;;;22.00;43.40;;;;;;4993521;28;20084;-67
2023/04/21 03:23:34;;;;;;;3.50;3.20;;;22.00;43.40;;;;;;4994127;28;20133;-67
2023/04/21 03:26:06;;;;;;;3.53;3.22;;;22.00;43.40;;;;;;4994587;28;20101;-67
2023/04/21 03:28:34;;;;;;;3.85;3.40;;;22.00;43.40;;;;;;4992974;28;20139;-67
2023/04/21 03:31:01;;;;;;;3.80;3.45;;;22.00;43.40;;;;;;4993172;28;20073;-67
2023/04/21 03:33:28;;;;;;;4.72;3.35;;;22.00;43.50;;;;;;4993266;28;20113;-67
2023/04/21 03:35:55;;;;;;;3.63;3.33;;;22.00;43.50;;;;;;4994041;28;20140;-67
2023/04/21 03:38:22;;;;;;;3.35;3.05;;;22.00;43.50;;;;;;4992942;28;20192;-67
2023/04/21 03:40:49;;;;;;;3.95;3.40;;;21.90;43.50;;;;;;5011688;28;20046;-66
2023/04/21 03:43:16;;;;;;;3.50;3.20;;;22.00;43.60;;;;;;5013366;28;20060;-67
2023/04/21 03:45:43;;;;;;;3.83;3.45;;;22.00;43.50;;;;;;5013770;28;20049;-66
2023/04/21 03:48:11;;;;;;;4.57;3.30;;;22.00;43.50;;;;;;5014183;28;20045;-67
2023/04/21 03:50:38;;;;;;;4.18;3.63;;;22.00;43.60;;;;;;5011860;28;20050;-66
2023/04/21 03:53:05;;;;;;;4.18;3.50;;;21.90;43.50;;;;;;5012531;28;20042;-67
2023/04/21 03:55:32;;;;;;;4.63;4.07;;;22.00;43.60;;;;;;5013184;28;20050;-66
2023/04/21 03:57:59;;;;;;;4.93;3.70;;;22.00;43.50;;;;;;5012392;28;20533;-67
2023/04/21 04:00:26;;;;;;;3.58;3.10;;;22.00;43.50;;;;;;5013092;28;20050;-67
2023/04/21 04:02:53;;;;;;;3.55;3.25;;;22.00;43.50;;;;;;5012609;28;20471;-66
2023/04/21 04:05:21;;;;;;;3.75;3.35;;;22.00;43.60;;;;;;5012672;28;20054;-67
2023/04/21 04:07:48;;;;;;;6.63;3.97;;;22.00;43.70;;;;;;5012251;28;20054;-66
2023/04/21 04:10:15;;;;;;;4.65;3.50;;;22.00;43.80;;;;;;5012544;28;20124;-66
2023/04/21 04:12:42;;;;;;;3.88;2.95;;;22.00;43.90;;;;;;4997859;28;20051;-68
2023/04/21 04:15:10;;;;;;;4.10;3.08;;;22.00;44.00;;;;;;4993889;28;20517;-66
2023/04/21 04:17:37;;;;;;;4.22;3.53;;;22.00;44.40;;;;;;4996501;28;20046;-61
2023/04/21 04:20:07;;;;;;;4.13;3.10;;;22.00;44.50;;;;;;4995236;28;20076;-62
2023/04/21 04:22:34;;;;;;;4.15;3.20;;;22.00;44.60;;;;;;5011540;28;20132;-62
2023/04/21 04:25:02;;;;;;;4.55;3.92;;;22.00;45.10;;;;;;5012972;28;20092;-63
2023/04/21 04:27:30;;;;;;;4.20;3.72;;;22.00;45.50;;;;;;5011654;28;20061;-63
2023/04/21 04:29:58;;;;;;;4.85;3.20;;;22.00;45.60;;;;;;5013312;28;20050;-63
2023/04/21 04:32:28;;;;;;;4.78;2.97;;;22.00;45.40;;;;;;5000545;28;20490;-63
2023/04/21 04:34:55;;;;;;;;;;;22.00;45.20;;;;;;4996802;28;20449;-64
2023/04/21 04:37:24;;;;;;;3.65;3.28;;;22.00;45.00;;;;;;4992332;28;19933;-64
2023/04/21 04:39:54;;;;;;;3.40;3.10;;;22.10;44.80;;;;;;4996517;28;20050;-64
2023/04/21 04:42:21;;;;;;;3.85;3.55;;;22.00;44.50;;;;;;4993136;28;20261;-64
2023/04/21 04:44:52;;;;;;;3.95;3.08;;;22.10;44.40;;;;;;4992806;28;20105;-64
2023/04/21 04:47:19;;;;;;;4.72;3.38;;;22.10;44.20;;;;;;4992073;28;20138;-65
2023/04/21 04:49:47;;;;;;;5.18;3.60;;;22.20;44.10;;;;;;4994012;28;20054;-64
2023/04/21 04:52:14;;;;;;;3.90;3.50;;;22.10;44.00;;;;;;5004370;28;20445;-65
2023/04/21 04:54:41;;;;;;;3.55;3.08;;;22.20;43.90;;;;;;5008022;28;20207;-65
2023/04/21 04:57:08;;;;;;;4.55;3.20;;;22.10;43.80;;;;;;5004901;28;20049;-66
2023/04/21 04:59:36;;;;;;;5.00;3.70;;;22.20;43.70;;;;;;5011879;28;20482;-65
2023/04/21 05:02:03;;;;;;;5.55;3.53;;;22.10;43.60;;;;;;5009440;28;20556;-65
2023/04/21 05:04:30;;;;;;;6.65;3.38;;;22.20;43.70;;;;;;4994972;28;20054;-65
2023/04/21 05:06:58;;;;;;;4.18;3.28;;;22.20;43.60;;;;;;4996501;28;20050;-65
2023/04/21 05:09:25;;;;;;;3.97;3.55;;;22.20;43.50;;;;;;5004790;28;20414;-66
2023/04/21 05:11:52;;;;;;;4.00;3.50;;;22.30;43.50;;;;;;5011458;28;20493;-65
2023/04/21 05:14:19;;;;;;;6.95;3.70;;;22.30;43.40;;;;;;5008960;28;20042;-65
2023/04/21 05:16:47;;;;;;;4.05;3.35;;;22.30;43.40;;;;;;5012310;28;20045;-65
2023/04/21 05:19:14;;;;;;;3.97;3.55;;;22.30;43.30;;;;;;5008296;28;20137;-65
2023/04/21 05:21:44;;;;;;;4.50;3.22;;;22.30;43.30;;;;;;5001904;28;20665;-65
2023/04/21 05:24:12;;;;;;;4.65;3.92;;;22.40;43.30;;;;;;5000714;28;20052;-65
2023/04/21 05:26:39;;;;;;;5.85;3.75;;;22.30;43.20;;;;;;5005594;28;20072;-60
2023/04/21 05:29:06;;;;;;;5.40;3.60;;;22.40;43.40;;;;;;5006862;28;20054;-60
2023/04/21 05:31:34;;;;;;;5.63;4.28;;;22.40;43.60;;;;;;5009730;28;20081;-58
2023/04/21 05:34:02;;;;;;;4.97;4.00;;;22.40;43.60;;;;;;5002616;28;20058;-59
2023/04/21 05:36:31;;;;;;;4.53;3.63;;;22.50;43.80;;;;;;5005452;28;20084;-58
2023/04/21 05:38:58;;;;;;;4.75;3.28;;;22.50;43.70;;;;;;5003293;28;20046;-58
2023/04/21 05:41:26;;;;;;;3.33;2.90;;;22.50;43.70;;;;;;5002978;28;20050;-59
2023/04/21 05:43:53;;;;;;;6.00;4.00;;;22.60;43.80;;;;;;4996723;28;20050;-58
2023/04/21 05:46:20;;;;;;;4.60;3.42;;;22.60;43.80;;;;;;5004434;28;20054;-59
2023/04/21 05:48:48;;;;;;;7.40;3.20;;;22.60;43.80;;;;;;5000493;28;20076;-58
2023/04/21 05:51:16;;;;;;;3.30;2.97;;;22.70;43.70;;;;;;4999889;28;20049;-60
2023/04/21 05:53:45;;;;;;;5.32;4.43;;;22.70;43.60;;;;;;5000675;28;20134;-59
2023/04/21 05:56:13;;;;;;;3.33;3.03;;;22.70;43.40;;;;;;5002992;28;20057;-59
2023/04/21 05:58:41;;;;;;;3.97;3.45;;;22.80;43.40;;;;;;4996594;28;20137;-63
2023/04/21 06:01:08;;;;;;;3.58;3.28;;;22.80;43.30;;;;;;4999899;28;20042;-59
2023/04/21 06:03:35;;;;;;;5.32;3.47;;;22.90;43.50;;;;;;5000442;28;20080;-60
2023/04/21 06:06:06;;;;;;;5.00;4.00;;;22.90;43.60;;;;;;4997757;28;20085;-58
2023/04/21 06:08:33;;;;;;;5.78;4.55;;;22.90;43.60;;;;;;4999315;28;20085;-60
2023/04/21 06:11:01;;;;;;;7.55;3.72;;;23.00;43.60;;;;;;5002381;28;20054;-58
2023/04/21 06:13:28;;;;;;;7.40;4.15;;;23.00;43.60;;;;;;5000312;28;20081;-60
2023/04/21 06:15:55;;;;;;;9.00;4.22;;;23.00;43.70;;;;;;5001343;28;20148;-58
2023/04/21 06:18:23;;;;;;;4.95;3.67;;;23.10;43.60;;;;;;4999491;28;20726;-61
2023/04/21 06:20:51;;;;;;;6.10;3.90;;;23.10;43.60;;;;;;5002230;28;20160;-59
2023/04/21 06:23:20;;;;;;;5.72;3.78;;;23.10;43.70;;;;;;5002866;28;20100;-58
2023/04/21 06:25:58;;;;;;;5.40;3.45;;;23.20;43.80;;;;;;5000115;28;20092;-59
2023/04/21 06:28:25;;;;;;;5.90;3.65;;;23.20;43.70;;;;;;5001448;28;20054;-60
2023/04/21 06:30:52;;;;;;;6.70;3.75;;;23.30;43.50;;;;;;5001514;28;20137;-60
2023/04/21 06:33:20;;;;;;;6.75;4.45;;;23.30;43.50;;;;;;5000951;28;20042;-60
2023/04/21 06:35:47;;;;;;;14.00;3.80;;;23.40;43.50;;;;;;5004024;28;19922;-60
2023/04/21 06:38:15;;;;;;;11.77;4.07;;;23.30;43.50;;;;;;5001619;28;20129;-61
2023/04/21 06:40:42;;;;;;;8.60;4.10;;;23.40;43.40;;;;;;5004111;28;20049;-60
2023/04/21 06:43:09;;;;;;;7.28;4.28;;;23.40;43.50;;;;;;5002008;28;20077;-58
2023/04/21 06:45:36;;;;;;;9.95;4.00;;;23.50;43.50;;;;;;5019860;28;20062;-63
2023/04/21 06:48:04;;;;;;;7.15;3.70;;;23.60;43.30;;;;;;4998845;28;20534;-59
2023/04/21 06:50:31;;;;;;;8.43;4.30;;;23.60;43.30;;;;;;5003479;28;20056;-58
2023/04/21 06:52:59;;;;;;;5.15;3.75;;;23.60;43.20;;;;;;5003622;28;20149;-58
2023/04/21 06:55:26;;;;;;;8.13;4.25;;;23.70;43.10;;;;;;5004187;28;20141;-59
2023/04/21 06:57:54;;;;;;;4.72;3.67;;;23.70;42.90;;;;;;4999619;28;20056;-59
2023/04/21 07:00:21;;;;;;;15.80;4.38;;;23.70;42.80;;;;;;4999827;28;20486;-59
2023/04/21 07:02:48;;;;;;;9.55;4.00;;;23.80;42.80;;;;;;5002239;28;20119;-58
2023/04/21 07:05:16;;;;;;;6.03;3.72;;;23.90;42.80;;;;;;5000503;28;20109;-59
2023/04/21 07:07:43;;;;;;;11.57;3.63;;;23.90;42.80;;;;;;4998358;28;20413;-59
2023/04/21 07:10:11;;;;;;;9.52;3.92;;;23.90;42.80;;;;;;5000494;28;20064;-59
2023/04/21 07:12:39;;;;;;;6.00;3.50;;;24.00;42.80;;;;;;4997681;28;20092;-59
2023/04/21 07:15:07;;;;;;;5.25;3.40;;;24.00;42.80;;;;;;5001125;28;20513;-59
2023/04/21 07:17:34;;;;;;;9.20;4.07;;;24.00;42.80;;;;;;5000607;28;20077;-60
2023/04/21 07:20:02;;;;;;;6.72;3.88;;;24.10;42.90;;;;;;5003191;28;20046;-61
2023/04/21 07:22:30;;;;;;;8.88;4.40;;;24.10;43.10;;;;;;4999269;28;20453;-59
2023/04/21 07:24:57;;;;;;;9.13;3.95;;;24.20;43.40;;;;;;5002149;28;20527;-60
2023/04/21 07:27:24;;;;;;;9.75;4.60;;;24.30;43.40;;;;;;4999490;28;20080;-60
2023/04/21 07:29:51;;;;;;;6.97;3.78;;;24.30;43.20;;;;;;5001308;28;20056;-61
2023/04/21 07:32:19;;;;;;;6.72;3.55;;;24.30;43.30;;;;;;4999989;28;20125;-60
2023/04/21 07:34:47;;;;;;;7.72;3.92;;;24.40;42.90;;;;;;5004010;28;20116;-58
2023/04/21 07:37:15;;;;;;;7.88;4.20;;;24.50;42.70;;;;;;5000008;28;20422;-59
2023/04/21 07:39:42;;;;;;;6.80;4.57;;;24.50;42.50;;;;;;5003592;28;20137;-58
2023/04/21 07:42:09;;;;;;;11.85;5.00;;;24.50;42.00;;;;;;5001861;28;20042;-59
2023/04/21 07:44:39;;;;;;;7.70;4.15;;;24.50;42.00;;;;;;4999867;28;20177;-61
2023/04/21 07:47:07;;;;;;;11.75;4.80;;;24.60;41.50;;;;;;5001517;28;20106;-61
2023/04/21 07:49:34;;;;;;;10.43;5.13;;;24.60;41.30;;;;;;5003301;28;20097;-62
2023/04/21 07:52:02;;;;;;;11.70;4.68;;;24.60;40.90;;;;;;4998067;28;20061;-61
2023/04/21 07:54:29;;;;;;;11.88;4.80;;;24.60;40.80;;;;;;5001764;28;20046;-60
2023/04/21 07:56:57;;;;;;;12.82;5.47;;;24.60;41.00;;;;;;5002761;28;20057;-60
2023/04/21 07:59:25;;;;;;;13.52;5.32;;;24.70;41.30;;;;;;5000834;28;20073;-60
2023/04/21 08:01:52;;;;;;;7.15;4.85;;;24.60;40.20;;;;;;4997532;28;20773;-59
2023/04/21 08:04:19;;;;;;;9.35;4.55;;;24.60;40.80;;;;;;4994398;28;20450;-58
2023/04/21 08:06:47;;;;;;;11.43;4.38;;;24.60;40.70;;;;;;5007198;28;20598;-59
2023/04/21 08:09:15;;;;;;;12.25;5.35;;;24.60;40.80;;;;;;5002615;28;20049;-59
2023/04/21 08:11:43;;;;;;;15.48;5.07;;;24.60;38.40;;;;;;5004092;28;20355;-58
2023/04/21 08:14:10;;;;;;;7.38;4.18;;;24.60;38.50;;;;;;4998799;28;20054;-58
2023/04/21 08:16:40;;;;;;;8.65;3.78;;;24.50;39.30;;;;;;5001389;28;20041;-60
2023/04/21 08:19:08;;;;;;;9.90;4.65;;;24.50;39.70;;;;;;5003507;28;20116;-58
2023/04/21 08:21:36;;;;;;;8.13;4.80;;;24.50;40.00;;;;;;5002099;28;20045;-59
2023/04/21 08:24:04;;;;;;;8.93;4.95;;;24.60;40.50;;;;;;4998188;28;20081;-59
2023/04/21 08:26:32;;;;;;;8.85;4.78;;;24.60;40.30;;;;;;5004049;28;20053;-59
2023/04/21 08:29:00;;;;;;;13.18;4.93;;;24.60;40.30;;;;;;4994392;28;20057;-59
2023/04/21 08:31:30;;;;;;;15.40;4.97;;;24.60;40.20;;;;;;4998692;28;20085;-59
2023/04/21 08:34:00;;;;;;;8.50;4.97;;;24.70;40.60;;;;;;5002380;28;20054;-59
2023/04/21 08:36:30;;;;;;;10.98;5.03;;;24.70;40.40;;;;;;5000352;28;20081;-58
2023/04/21 08:38:58;;;;;;;7.10;4.20;;;24.70;40.20;;;;;;5002855;28;20149;-58
2023/04/21 08:41:25;;;;;;;9.68;4.90;;;24.70;40.30;;;;;;5002645;28;20054;-59
2023/04/21 08:43:53;;;;;;;13.15;5.25;;;24.70;40.40;;;;;;5002770;28;20042;-59
2023/04/21 08:46:21;;;;;;;12.25;5.45;;;24.70;40.60;;;;;;5003499;28;20125;-59
2023/04/21 08:48:49;;;;;;;8.43;4.70;;;24.80;40.60;;;;;;4999401;28;20136;-59
2023/04/21 08:51:22;;;;;;;10.27;4.55;;;24.80;40.30;;;;;;5000723;28;20073;-59
2023/04/21 08:53:50;;;;;;;10.38;4.55;;;24.80;40.40;;;;;;4999218;28;20115;-62
2023/04/21 08:56:18;;;;;;;8.57;4.13;;;24.80;40.60;;;;;;5001305;28;20050;-59
2023/04/21 08:58:45;;;;;;;8.05;4.30;;;24.90;41.00;;;;;;4992180;28;20046;-60
2023/04/21 09:01:12;;;;;;;11.23;4.43;;;24.90;41.00;;;;;;4996420;28;20478;-61
2023/04/21 09:03:39;;;;;;;12.57;4.88;;;24.90;40.80;;;;;;4998649;28;20057;-60
2023/04/21 09:06:09;;;;;;;10.48;4.47;;;24.90;40.60;;;;;;5005426;28;20077;-57
2023/04/21 09:08:52;;;;;;;7.78;3.83;;;25.00;40.90;;;;;;5004234;28;20058;-58
2023/04/21 09:11:19;;;;;;;;;;;25.00;40.90;;;;;;5005381;28;20104;-57
2023/04/21 09:13:46;;;;;;;8.13;4.05;;;25.00;40.70;;;;;;5002955;28;19944;-58
2023/04/21 09:16:17;;;;;;;7.13;4.25;;;25.00;40.40;;;;;;5000277;28;20078;-58
2023/04/21 09:18:44;;;;;;;9.27;4.72;;;25.10;40.40;;;;;;5005520;28;20046;-58
2023/04/21 09:21:16;;;;;;;7.45;3.88;;;25.10;40.30;;;;;;4997408;28;20085;-60
2023/04/21 09:23:50;;;;;;;9.27;4.70;;;25.10;40.30;;;;;;5000481;28;20721;-59
2023/04/21 09:26:21;;;;;;;6.47;3.25;;;25.10;40.20;;;;;;4996127;28;20049;-59
2023/04/21 09:28:50;;;;;;;7.80;3.95;;;25.10;40.20;;;;;;5022853;28;20128;-60
2023/04/21 09:31:23;;;;;;;8.10;3.63;;;25.10;40.20;;;;;;5000103;28;20046;-59
2023/04/21 09:33:56;;;;;;;9.10;3.60;;;25.10;40.50;;;;;;5003840;28;20053;-58
2023/04/21 09:36:29;;;;;;;5.68;3.85;;;25.10;40.40;;;;;;5000947;28;20107;-59
2023/04/21 09:38:59;;;;;;;9.45;5.78;;;25.10;40.30;;;;;;5003430;28;20046;-59
2023/04/21 09:41:32;;;;;;;8.05;3.80;;;25.20;40.50;;;;;;5001268;28;20057;-60
2023/04/21 09:44:00;;;;;;;7.22;3.85;;;25.20;40.60;;;;;;5003831;28;20045;-62
2023/04/21 09:46:31;;;;;;;8.80;3.67;;;25.20;40.80;;;;;;5011440;28;20068;-59
2023/04/21 09:49:00;;;;;;;10.45;4.03;;;25.30;40.80;;;;;;5006596;28;20085;-58
2023/04/21 09:51:30;;;;;;;8.33;3.53;;;25.20;40.70;;;;;;5000128;28;20049;-59
2023/04/21 09:54:19;;;;;;;10.48;4.03;;;25.30;40.80;;;;;;5005901;28;20666;-59
2023/04/21 09:56:53;;;;;;;10.30;3.20;;;25.30;40.80;;;;;;5007670;28;20521;-59
2023/04/21 09:59:28;;;;;;;5.85;3.47;;;25.30;40.90;;;;;;5015037;28;20049;-59
2023/04/21 10:01:58;;;;;;;7.13;3.63;;;25.30;40.70;;;;;;5011240;28;20109;-59
2023/04/21 10:04:27;;;;;;;9.85;3.90;;;25.30;40.70;;;;;;5005919;28;21858;-59
2023/04/21 10:06:57;;;;;;;;;;;25.30;40.60;;;;;;5007051;28;20046;-60
2023/04/21 10:09:30;;;;;;;6.25;3.40;;;25.30;40.60;;;;;;5011514;28;19921;-59
2023/04/21 10:11:59;;;;;;;9.40;3.85;;;25.40;41.00;;;;;;5009718;28;20128;-61
2023/04/21 10:14:26;;;;;;;6.60;3.45;;;25.40;40.80;;;;;;5009437;28;20049;-61
2023/04/21 10:17:05;;;;;;;8.68;3.60;;;25.40;40.70;;;;;;5007291;28;20401;-61
2023/04/21 10:19:38;;;;;;;8.07;4.15;;;25.40;40.60;;;;;;5009024;28;20061;-60
2023/04/21 10:22:10;;;;;;;6.82;3.40;;;25.40;40.60;;;;;;5000896;28;20413;-59
2023/04/21 10:24:42;;;;;;;10.05;3.72;;;25.40;40.60;;;;;;5005406;28;20524;-59
2023/04/21 10:27:11;;;;;;;8.93;3.92;;;25.40;40.70;;;;;;5003633;28;20129;-59
2023/04/21 10:29:38;;;;;;;6.63;3.70;;;25.40;40.70;;;;;;5006917;28;20037;-59
2023/04/21 10:32:44;;;;;;;6.32;3.08;;;25.40;40.50;;;;;;5001919;28;20052;-59
2023/04/21 10:35:21;;;;;;;11.30;3.63;;;25.40;40.30;;;;;;5003586;28;20077;-58
2023/04/21 10:37:53;;;;;;;7.63;3.38;;;25.40;40.20;;;;;;5006365;28;20058;-59
2023/04/21 10:40:34;;;;;;;11.30;3.80;;;25.40;40.10;;;;;;5018588;28;20053;-59
2023/04/21 10:43:30;;;;;;;;;;;25.40;40.10;;;;;;5006807;28;20042;-59
2023/04/21 10:45:58;;;;;;;12.10;3.58;;;25.40;40.00;;;;;;4999748;28;20291;-60
2023/04/21 10:48:26;;;;;;;6.13;3.88;;;25.40;39.90;;;;;;5007584;28;20050;-59
2023/04/21 10:50:53;;;;;;;6.22;3.60;;;25.40;39.70;;;;;;5004271;28;20103;-59
2023/04/21 10:53:24;;;;;;;8.77;2.80;;;25.40;39.70;;;;;;5007393;28;20049;-59
2023/04/21 10:55:53;;;;;;;8.98;3.03;;;25.40;39.40;;;;;;5005180;28;20050;-59
2023/04/21 10:58:23;;;;;;;8.00;3.65;;;25.40;39.60;;;;;;5003981;28;20053;-59
2023/04/21 11:00:54;;;;;;;16.93;3.70;;;25.40;39.60;;;;;;5006277;28;20125;-59
2023/04/21 11:03:21;;;;;;;5.90;3.35;;;25.40;39.20;;;;;;4997679;28;20152;-61
2023/04/21 11:05:49;;;;;;;5.43;3.30;;;25.40;39.20;;;;;;5003931;28;20476;-60
2023/04/21 11:08:16;;;;;;;4.60;3.28;;;25.40;39.40;;;;;;5010044;28;20493;-61
2023/04/21 11:10:51;;;;;;;7.25;3.25;;;25.40;39.60;;;;;;5000614;28;20406;-60
2023/04/21 11:13:24;;;;;;;5.03;2.90;;;25.40;39.60;;;;;;5001504;28;20046;-60
2023/04/21 11:16:04;;;;;;;4.40;2.75;;;25.40;39.70;;;;;;4998450;28;20677;-59
2023/04/21 11:18:41;;;;;;;8.20;2.80;;;25.50;39.60;;;;;;4998537;28;20061;-59
2023/04/21 11:21:17;;;;;;;3.58;3.28;;;25.50;39.60;;;;;;5002321;28;20081;-62
2023/04/21 11:23:50;;;;;;;3.72;2.72;;;25.50;39.80;;;;;;4999520;28;20200;-62
2023/04/21 11:26:28;;;;;;;5.03;2.70;;;25.60;40.30;;;;;;5004177;28;20080;-59
2023/04/21 11:28:55;;;;;;;10.40;3.00;;;25.60;39.90;;;;;;4998831;28;20156;-60
2023/04/21 11:31:28;;;;;;;5.80;3.47;;;25.60;40.30;;;;;;4999959;28;20065;-60
2023/04/21 11:33:57;;;;;;;5.05;2.83;;;25.60;40.60;;;;;;5002301;28;20489;-60
2023/04/21 11:36:24;;;;;;;7.25;3.25;;;25.60;40.50;;;;;;5003469;28;20077;-59
2023/04/21 11:38:52;;;;;;;5.28;3.00;;;25.70;40.40;;;;;;5005182;28;20072;-59
2023/04/21 11:41:23;;;;;;;9.45;3.35;;;25.70;40.30;;;;;;5003553;28;20556;-54
2023/04/21 11:43:51;;;;;;;4.47;2.65;;;25.70;40.40;;;;;;5002406;28;20050;-56
2023/04/21 11:46:23;;;;;;;4.65;3.25;;;25.70;40.40;;;;;;5007759;28;20080;-60
2023/04/21 11:49:10;;;;;;;6.28;3.35;;;25.70;40.80;;;;;;5000896;28;20056;-55
2023/04/21 11:51:40;;;;;;;8.32;3.10;;;25.70;40.50;;;;;;5004547;28;21282;-57
2023/04/21 11:54:11;;;;;;;12.38;2.85;;;25.80;40.70;;;;;;5007164;28;20081;-58
2023/04/21 11:56:46;;;;;;;7.85;2.40;;;25.80;40.70;;;;;;5008832;28;20057;-58
2023/04/21 11:59:15;;;;;;;6.00;3.33;;;25.80;40.40;;;;;;5000710;28;20140;-60
2023/04/21 12:01:47;;;;;;;5.63;2.72;;;25.80;40.40;;;;;;5005204;28;20473;-57
2023/04/21 12:04:16;;;;;;;14.10;3.38;;;25.80;40.90;;;;;;5004651;28;20044;-57
2023/04/21 12:06:45;;;;;;;5.68;2.90;;;25.80;40.90;;;;;;5007996;28;20084;-56
2023/04/21 12:09:20;;;;;;;8.60;3.60;;;25.90;40.90;;;;;;5004393;28;20050;-58
2023/04/21 12:11:53;;;;;;;5.32;3.03;;;25.90;40.60;;;;;;5007448;28;20364;-58
2023/04/21 12:14:22;;;;;;;13.57;3.58;;;25.90;40.30;;;;;;5007407;28;20052;-58
2023/04/21 12:16:52;;;;;;;5.85;3.33;;;25.90;40.20;;;;;;5008683;28;20427;-58
2023/04/21 12:19:34;;;;;;;4.72;2.30;;;25.90;39.90;;;;;;5010119;28;20474;-57
2023/04/21 12:22:21;;;;;;;5.32;2.40;;;25.90;39.50;;;;;;5010806;28;20477;-57
2023/04/21 12:24:49;;;;;;;7.72;2.55;;;25.90;39.50;;;;;;5011659;28;20037;-58
2023/04/21 12:27:17;;;;;;;7.18;2.97;;;25.90;39.60;;;;;;5011976;28;20088;-59
2023/04/21 12:29:45;;;;;;;7.97;2.75;;;25.90;39.60;;;;;;5009810;28;20050;-57
2023/04/21 12:32:12;;;;;;;7.25;2.70;;;25.90;39.80;;;;;;5011659;28;20046;-57
2023/04/21 12:34:39;;;;;;;8.82;2.60;;;25.80;39.90;;;;;;5004162;28;20079;-57
2023/04/21 12:37:06;;;;;;;6.68;2.45;;;25.80;39.00;;;;;;5012250;28;20518;-57
2023/04/21 12:39:34;;;;;;;5.30;3.00;;;25.80;38.90;;;;;;5011959;28;20042;-57
2023/04/21 12:42:01;;;;;;;5.75;2.90;;;25.80;39.20;;;;;;5012044;28;20137;-57
2023/04/21 12:44:28;;;;;;;7.30;2.42;;;25.80;39.60;;;;;;5011580;28;20082;-57
2023/04/21 12:46:56;;;;;;;8.68;3.13;;;25.70;39.80;;;;;;5011194;28;20045;-57
2023/04/21 12:49:24;;;;;;;6.30;2.08;;;25.80;40.00;;;;;;5025528;28;20145;-54
2023/04/21 12:51:51;;;;;;;5.50;2.88;;;25.70;39.90;;;;;;5012950;28;20046;-57
2023/04/21 12:54:19;;;;;;;6.63;2.47;;;25.70;39.70;;;;;;5013004;28;20451;-58